createdAt,value
2023-03-05T00:01:12.688Z,100904.28
2023-03-05T00:03:39.490Z,100907.19
2023-03-05T00:06:06.843Z,100900.56
2023-03-05T00:08:34.300Z,100894.69
2023-03-05T00:11:07.504Z,100899.09
2023-03-05T00:13:34.724Z,100893.91
2023-03-05T00:16:06.479Z,100896.06
2023-03-05T00:18:33.669Z,100887.53
2023-03-05T00:21:00.285Z,100883.88
2023-03-05T00:23:27.197Z,100876.75
2023-03-05T00:25:54.124Z,100876.09
2023-03-05T00:28:20.722Z,100873.56
2023-03-05T00:30:47.724Z,100870.94
2023-03-05T00:33:14.934Z,100870.25
2023-03-05T00:35:46.526Z,100867.44
2023-03-05T00:38:13.607Z,100859.16
2023-03-05T00:40:41.526Z,100852.03
2023-03-05T00:43:09.287Z,100853.66
2023-03-05T00:45:36.041Z,100851.16
2023-03-05T00:48:03.444Z,100846.63
2023-03-05T00:50:30.106Z,100842.53
2023-03-05T00:52:56.722Z,100844.38
2023-03-05T00:55:23.408Z,100840.63
2023-03-05T00:57:50.058Z,100839.75
2023-03-05T01:00:17.381Z,100834.63
2023-03-05T01:02:44.081Z,100831.06
2023-03-05T01:05:13.653Z,100832.16
2023-03-05T01:07:41.075Z,100832.00
2023-03-05T01:10:09.346Z,100833.03
2023-03-05T01:12:35.962Z,100834.00
2023-03-05T01:15:03.359Z,100822.69
2023-03-05T01:17:30.213Z,100814.38
2023-03-05T01:19:56.933Z,100822.28
2023-03-05T01:22:23.575Z,100820.50
2023-03-05T01:24:50.187Z,100827.56
2023-03-05T01:27:16.779Z,100830.88
2023-03-05T01:29:43.411Z,100819.78
2023-03-05T01:32:10.116Z,100813.00
2023-03-05T01:34:37.868Z,100811.44
2023-03-05T01:37:04.750Z,100815.75
2023-03-05T01:39:31.377Z,100808.19
2023-03-05T01:41:57.984Z,100804.91
2023-03-05T01:44:28.040Z,100805.78
2023-03-05T01:46:55.004Z,100807.00
2023-03-05T01:49:28.939Z,100799.09
2023-03-05T01:52:17.609Z,100797.03
2023-03-05T01:54:52.088Z,100801.88
2023-03-05T01:57:24.857Z,100816.75
2023-03-05T01:59:55.146Z,100798.00
2023-03-05T02:02:25.848Z,100811.56
2023-03-05T02:05:02.911Z,100789.41
2023-03-05T02:07:31.149Z,100797.94
2023-03-05T02:09:57.723Z,100798.63
2023-03-05T02:12:24.480Z,100791.59
2023-03-05T02:14:59.086Z,100786.81
2023-03-05T02:17:27.882Z,100787.50
2023-03-05T02:20:03.351Z,100787.78
2023-03-05T02:22:29.958Z,100773.09
2023-03-05T02:24:56.574Z,100783.31
2023-03-05T02:27:34.881Z,100780.78
2023-03-05T02:30:02.162Z,100778.59
2023-03-05T02:32:28.798Z,100782.63
2023-03-05T02:34:55.396Z,100768.72
2023-03-05T02:37:22.077Z,100772.50
2023-03-05T02:39:48.718Z,100764.03
2023-03-05T02:42:15.384Z,100752.81
2023-03-05T02:44:41.952Z,100752.00
2023-03-05T02:47:08.524Z,100753.47
2023-03-05T02:49:35.105Z,100747.78
2023-03-05T02:52:01.746Z,100749.28
2023-03-05T02:54:28.323Z,100755.59
2023-03-05T02:56:54.896Z,100749.50
2023-03-05T02:59:21.519Z,100749.75
2023-03-05T03:01:48.156Z,100740.28
2023-03-05T03:04:14.799Z,100735.00
2023-03-05T03:06:41.457Z,100728.06
2023-03-05T03:09:08.087Z,100730.72
2023-03-05T03:11:34.963Z,100732.56
2023-03-05T03:14:01.688Z,100731.66
2023-03-05T03:16:29.032Z,100723.81
2023-03-05T03:18:55.639Z,100726.47
2023-03-05T03:21:25.194Z,100726.94
2023-03-05T03:23:51.876Z,100721.28
2023-03-05T03:26:19.281Z,100721.03
2023-03-05T03:28:46.105Z,100719.94
2023-03-05T03:31:12.798Z,100710.88
2023-03-05T03:33:39.455Z,100706.50
2023-03-05T03:36:06.543Z,100710.88
2023-03-05T03:38:33.272Z,100699.94
2023-03-05T03:40:59.892Z,100701.88
2023-03-05T03:43:26.535Z,100703.47
2023-03-05T03:45:53.180Z,100698.31
2023-03-05T03:48:19.855Z,100691.69
2023-03-05T03:50:46.449Z,100688.38
2023-03-05T03:53:14.384Z,100694.63
2023-03-05T03:55:46.546Z,100694.53
2023-03-05T03:58:13.568Z,100684.38
2023-03-05T04:00:40.809Z,100681.69
2023-03-05T04:03:07.980Z,100674.25
2023-03-05T04:05:34.672Z,100664.78
2023-03-05T04:08:01.499Z,100665.44
2023-03-05T04:10:28.072Z,100669.00
2023-03-05T04:12:54.688Z,100655.66
2023-03-05T04:15:21.334Z,100656.50
2023-03-05T04:17:47.982Z,100656.16
2023-03-05T04:20:14.558Z,100660.59
2023-03-05T04:22:41.203Z,100657.22
2023-03-05T04:25:08.569Z,100647.19
2023-03-05T04:27:37.565Z,100657.19
2023-03-05T04:30:05.112Z,100650.47
2023-03-05T04:32:31.845Z,100646.16
2023-03-05T04:35:00.170Z,100647.84
2023-03-05T04:37:26.838Z,100646.50
2023-03-05T04:39:53.515Z,100640.31
2023-03-05T04:42:21.177Z,100642.72
2023-03-05T04:44:49.581Z,100634.25
2023-03-05T04:47:17.154Z,100633.53
2023-03-05T04:49:44.239Z,100629.13
2023-03-05T04:52:12.518Z,100632.28
2023-03-05T04:54:39.446Z,100635.78
2023-03-05T04:57:06.473Z,100638.44
2023-03-05T04:59:33.211Z,100617.75
2023-03-05T05:01:59.956Z,100628.50
2023-03-05T05:04:26.678Z,100626.28
2023-03-05T05:06:56.252Z,100631.44
2023-03-05T05:09:24.781Z,100626.50
2023-03-05T05:11:51.742Z,100637.47
2023-03-05T05:14:18.616Z,100636.88
2023-03-05T05:16:45.217Z,100632.91
2023-03-05T05:19:12.096Z,100634.81
2023-03-05T05:21:38.758Z,100628.97
2023-03-05T05:24:05.852Z,100623.06
2023-03-05T05:26:32.500Z,100628.97
2023-03-05T05:29:00.787Z,100619.63
2023-03-05T05:31:27.536Z,100624.78
2023-03-05T05:33:54.192Z,100615.28
2023-03-05T05:36:22.393Z,100622.22
2023-03-05T05:38:49.330Z,100623.41
2023-03-05T05:41:18.730Z,100616.25
2023-03-05T05:43:45.983Z,100622.94
2023-03-05T05:46:15.634Z,100634.38
2023-03-05T05:48:43.537Z,100625.28
2023-03-05T05:51:15.133Z,100631.16
2023-03-05T05:53:43.083Z,100636.63
2023-03-05T05:56:11.468Z,100641.56
2023-03-05T05:58:40.008Z,100627.84
2023-03-05T06:01:17.734Z,100634.47
2023-03-05T06:03:44.782Z,100621.53
2023-03-05T06:06:13.757Z,100627.66
2023-03-05T06:08:40.870Z,100629.84
2023-03-05T06:11:07.958Z,100621.16
2023-03-05T06:13:35.098Z,100623.53
2023-03-05T06:16:04.864Z,100625.91
2023-03-05T06:18:32.001Z,100627.69
2023-03-05T06:21:03.897Z,100620.59
2023-03-05T06:23:30.715Z,100629.84
2023-03-05T06:26:02.490Z,100627.44
2023-03-05T06:28:29.715Z,100629.94
2023-03-05T06:31:04.241Z,100619.59
2023-03-05T06:33:31.365Z,100617.78
2023-03-05T06:35:58.423Z,100609.66
2023-03-05T06:38:25.494Z,100613.09
2023-03-05T06:40:52.378Z,100618.00
2023-03-05T06:43:18.999Z,100607.78
2023-03-05T06:45:45.858Z,100612.94
2023-03-05T06:48:12.911Z,100618.28
2023-03-05T06:50:39.659Z,100609.72
2023-03-05T06:53:06.278Z,100626.00
2023-03-05T06:55:39.706Z,100620.00
2023-03-05T06:58:07.143Z,100617.03
2023-03-05T07:00:34.484Z,100623.38
2023-03-05T07:03:01.098Z,100634.97
2023-03-05T07:05:27.877Z,100624.84
2023-03-05T07:07:54.476Z,100624.31
2023-03-05T07:10:21.278Z,100622.03
2023-03-05T07:12:48.010Z,100625.81
2023-03-05T07:15:14.709Z,100620.44
2023-03-05T07:17:41.378Z,100626.13
2023-03-05T07:20:08.947Z,100631.72
2023-03-05T07:22:38.225Z,100632.69
2023-03-05T07:25:06.069Z,100628.66
2023-03-05T07:27:37.386Z,100633.31
2023-03-05T07:30:05.275Z,100639.16
2023-03-05T07:32:34.765Z,100642.78
2023-03-05T07:35:01.572Z,100634.41
2023-03-05T07:37:28.198Z,100638.44
2023-03-05T07:39:54.761Z,100638.09
2023-03-05T07:42:21.389Z,100636.88
2023-03-05T07:44:48.424Z,100631.47
2023-03-05T07:47:15.428Z,100629.22
2023-03-05T07:49:42.194Z,100635.84
2023-03-05T07:52:09.608Z,100626.16
2023-03-05T07:54:38.974Z,100633.91
2023-03-05T07:57:07.182Z,100629.75
2023-03-05T07:59:33.824Z,100636.63
2023-03-05T08:02:00.776Z,100635.22
2023-03-05T08:04:27.721Z,100626.31
2023-03-05T08:06:54.327Z,100637.13
2023-03-05T08:09:20.961Z,100628.75
2023-03-05T08:11:47.643Z,100623.69
2023-03-05T08:14:14.253Z,100630.47
2023-03-05T08:16:41.326Z,100632.56
2023-03-05T08:19:08.404Z,100642.00
2023-03-05T08:21:36.453Z,100623.19
2023-03-05T08:24:06.462Z,100618.66
2023-03-05T08:26:37.712Z,100632.56
2023-03-05T08:29:05.392Z,100628.16
2023-03-05T08:31:32.908Z,100621.13
2023-03-05T08:34:01.739Z,100626.19
2023-03-05T08:36:29.340Z,100622.88
2023-03-05T08:38:56.304Z,100627.19
2023-03-05T08:41:22.929Z,100611.16
2023-03-05T08:43:49.623Z,100612.59
2023-03-05T08:46:17.225Z,100605.09
2023-03-05T08:48:44.076Z,100599.94
2023-03-05T08:51:25.858Z,100606.63
2023-03-05T08:53:54.489Z,100610.66
2023-03-05T08:56:21.541Z,100606.25
2023-03-05T08:58:48.375Z,100586.63
2023-03-05T09:01:15.375Z,100590.84
2023-03-05T09:03:42.218Z,100584.66
2023-03-05T09:06:10.950Z,100582.09
2023-03-05T09:08:37.646Z,100580.41
2023-03-05T09:11:06.659Z,100582.31
2023-03-05T09:13:33.885Z,100588.69
2023-03-05T09:16:06.640Z,100594.59
2023-03-05T09:18:36.687Z,100597.47
2023-03-05T09:21:08.458Z,100576.72
2023-03-05T09:23:35.151Z,100589.38
2023-03-05T09:26:02.439Z,100580.94
2023-03-05T09:28:29.188Z,100574.91
2023-03-05T09:30:55.816Z,100573.00
2023-03-05T09:33:22.403Z,100574.69
2023-03-05T09:35:49.027Z,100575.81
2023-03-05T09:38:16.002Z,100566.88
2023-03-05T09:40:42.698Z,100584.69
2023-03-05T09:43:32.175Z,100572.16
2023-03-05T09:46:32.929Z,100571.47
2023-03-05T09:49:12.328Z,100578.47
2023-03-05T09:51:41.494Z,100569.50
2023-03-05T09:54:24.943Z,100573.78
2023-03-05T09:56:58.711Z,100566.25
2023-03-05T09:59:28.649Z,100572.88
2023-03-05T10:02:12.600Z,100561.34
2023-03-05T10:04:44.299Z,100558.53
2023-03-05T10:07:27.548Z,100562.13
2023-03-05T10:10:31.513Z,100565.66
2023-03-05T10:13:01.995Z,100557.22
2023-03-05T10:15:39.836Z,100553.53
2023-03-05T10:18:23.147Z,100545.34
2023-03-05T10:20:56.537Z,100546.22
2023-03-05T10:23:37.563Z,100547.03
2023-03-05T10:26:14.644Z,100547.69
2023-03-05T10:29:27.076Z,100544.84
2023-03-05T10:31:53.731Z,100536.97
2023-03-05T10:34:40.778Z,100533.38
2023-03-05T10:37:16.500Z,100527.09
2023-03-05T10:40:06.136Z,100531.38
2023-03-05T10:42:52.046Z,100524.22
2023-03-05T10:45:23.747Z,100510.00
2023-03-05T10:48:12.864Z,100518.00
2023-03-05T10:50:47.533Z,100514.13
2023-03-05T10:53:26.284Z,100506.44
2023-03-05T10:55:56.266Z,100501.66
2023-03-05T10:58:24.961Z,100519.69
2023-03-05T11:01:09.975Z,100511.41
2023-03-05T11:03:52.600Z,100503.06
2023-03-05T11:06:27.145Z,100514.06
2023-03-05T11:08:54.070Z,100499.44
2023-03-05T11:11:23.158Z,100495.50
2023-03-05T11:13:55.352Z,100496.72
2023-03-05T11:16:27.097Z,100494.09
2023-03-05T11:19:15.280Z,100485.19
2023-03-05T11:21:43.770Z,100481.75
2023-03-05T11:24:19.601Z,100478.53
2023-03-05T11:26:56.493Z,100477.78
2023-03-05T11:29:26.430Z,100491.53
2023-03-05T11:32:16.122Z,100488.50
2023-03-05T11:34:48.223Z,100486.84
2023-03-05T11:37:29.712Z,100482.47
2023-03-05T11:40:18.787Z,100476.50
2023-03-05T11:43:02.627Z,100472.97
2023-03-05T11:45:37.143Z,100461.91
2023-03-05T11:48:17.286Z,100471.00
2023-03-05T11:50:49.826Z,100460.16
2023-03-05T11:53:25.872Z,100460.38
2023-03-05T11:56:09.226Z,100464.75
2023-03-05T11:58:41.778Z,100466.56
2023-03-05T12:01:23.866Z,100451.50
2023-03-05T12:03:55.940Z,100458.09
2023-03-05T12:06:48.713Z,100455.81
2023-03-05T12:09:33.929Z,100453.97
2023-03-05T12:12:24.559Z,100440.97
2023-03-05T12:15:01.910Z,100429.59
2023-03-05T12:18:04.419Z,100441.19
2023-03-05T12:21:03.487Z,100434.50
2023-03-05T12:24:01.890Z,100436.91
2023-03-05T12:26:53.511Z,100432.13
2023-03-05T12:29:54.855Z,100422.75
2023-03-05T12:32:39.595Z,100414.31
2023-03-05T12:35:27.616Z,100422.88
2023-03-05T12:38:25.676Z,100411.66
2023-03-05T12:41:28.219Z,100415.78
2023-03-05T12:44:15.650Z,100404.16
2023-03-05T12:46:44.005Z,100392.25
2023-03-05T12:49:36.699Z,100400.75
2023-03-05T12:52:25.888Z,100408.13
2023-03-05T12:55:15.817Z,100418.66
2023-03-05T12:57:45.836Z,100424.03
2023-03-05T13:00:27.891Z,100417.00
2023-03-05T13:03:00.558Z,100408.59
2023-03-05T13:05:36.370Z,100400.16
2023-03-05T13:08:45.251Z,100403.59
2023-03-05T13:11:33.754Z,100406.69
2023-03-05T13:14:24.084Z,100402.31
2023-03-05T13:16:57.383Z,100396.88
2023-03-05T13:19:25.074Z,100389.75
2023-03-05T13:22:08.735Z,100397.19
2023-03-05T13:24:41.267Z,100377.84
2023-03-05T13:27:34.236Z,100394.78
2023-03-05T13:30:06.841Z,100391.53
2023-03-05T13:32:36.886Z,100383.22
2023-03-05T13:35:16.251Z,100384.41
2023-03-05T13:38:00.040Z,100371.53
2023-03-05T13:40:35.123Z,100378.72
2023-03-05T13:43:22.859Z,100390.00
2023-03-05T13:45:56.761Z,100377.19
2023-03-05T13:48:40.196Z,100381.91
2023-03-05T13:51:09.554Z,100385.00
2023-03-05T13:53:40.024Z,100383.31
2023-03-05T13:56:20.573Z,100371.84
2023-03-05T13:58:49.087Z,100383.47
2023-03-05T14:01:29.846Z,100370.44
2023-03-05T14:04:20.919Z,100369.47
2023-03-05T14:07:02.021Z,100380.44
2023-03-05T14:09:40.083Z,100377.81
2023-03-05T14:12:07.218Z,100380.19
2023-03-05T14:14:44.360Z,100363.81
2023-03-05T14:17:32.835Z,100373.34
2023-03-05T14:20:21.553Z,100361.56
2023-03-05T14:22:50.714Z,100369.91
2023-03-05T14:25:35.194Z,100362.81
2023-03-05T14:28:27.422Z,100373.50
2023-03-05T14:31:12.499Z,100369.41
2023-03-05T14:33:53.285Z,100370.41
2023-03-05T14:36:25.877Z,100361.94
2023-03-05T14:38:53.820Z,100362.25
2023-03-05T14:41:32.486Z,100358.44
2023-03-05T14:43:59.286Z,100359.06
2023-03-05T14:46:25.959Z,100351.63
2023-03-05T14:48:52.794Z,100352.41
2023-03-05T14:51:19.411Z,100341.28
2023-03-05T14:53:48.733Z,100345.03
2023-03-05T14:56:23.840Z,100343.69
2023-03-05T14:58:50.441Z,100344.66
2023-03-05T15:01:17.534Z,100346.38
2023-03-05T15:03:45.041Z,100334.47
2023-03-05T15:06:27.871Z,100336.63
2023-03-05T15:08:55.370Z,100333.19
2023-03-05T15:11:22.725Z,100326.19
2023-03-05T15:13:52.769Z,100326.28
2023-03-05T15:16:23.077Z,100322.34
2023-03-05T15:18:50.025Z,100331.03
2023-03-05T15:21:16.713Z,100322.69
2023-03-05T15:23:44.630Z,100316.50
2023-03-05T15:26:14.398Z,100309.69
2023-03-05T15:28:41.604Z,100312.31
2023-03-05T15:31:08.659Z,100316.72
2023-03-05T15:33:35.544Z,100323.81
2023-03-05T15:36:02.154Z,100314.31
2023-03-05T15:38:28.884Z,100317.59
2023-03-05T15:40:56.367Z,100305.25
2023-03-05T15:43:25.938Z,100313.84
2023-03-05T15:45:59.014Z,100305.94
2023-03-05T15:48:25.612Z,100309.53
2023-03-05T15:50:52.168Z,100310.78
2023-03-05T15:53:19.315Z,100313.44
2023-03-05T15:55:46.211Z,100310.19
2023-03-05T15:58:17.158Z,100306.19
2023-03-05T16:00:44.627Z,100308.59
2023-03-05T16:03:11.492Z,100301.66
2023-03-05T16:05:39.424Z,100297.94
2023-03-05T16:08:06.997Z,100299.69
2023-03-05T16:10:37.073Z,100299.91
2023-03-05T16:13:11.238Z,100296.94
2023-03-05T16:15:39.660Z,100294.50
2023-03-05T16:18:16.235Z,100302.34
2023-03-05T16:20:46.459Z,100298.13
2023-03-05T16:23:13.282Z,100297.31
2023-03-05T16:25:40.050Z,100303.97
2023-03-05T16:28:06.732Z,100299.69
2023-03-05T16:30:33.471Z,100297.94
2023-03-05T16:33:00.389Z,100305.53
2023-03-05T16:35:27.197Z,100298.91
2023-03-05T16:37:53.812Z,100302.34
2023-03-05T16:40:20.583Z,100304.34
2023-03-05T16:42:47.326Z,100294.47
2023-03-05T16:45:14.008Z,100301.91
2023-03-05T16:47:40.979Z,100306.41
2023-03-05T16:50:09.741Z,100302.94
2023-03-05T16:52:36.910Z,100298.06
2023-03-05T16:55:04.901Z,100296.44
2023-03-05T16:57:31.775Z,100301.00
2023-03-05T16:59:58.719Z,100302.13
2023-03-05T17:02:25.329Z,100309.06
2023-03-05T17:04:51.929Z,100304.91
2023-03-05T17:07:18.649Z,100300.06
2023-03-05T17:09:47.824Z,100311.63
2023-03-05T17:12:14.401Z,100309.88
2023-03-05T17:14:41.105Z,100306.66
2023-03-05T17:17:07.946Z,100299.44
2023-03-05T17:19:34.650Z,100302.16
2023-03-05T17:22:01.274Z,100306.47
2023-03-05T17:24:27.935Z,100300.22
2023-03-05T17:26:54.504Z,100300.41
2023-03-05T17:29:22.573Z,100303.97
2023-03-05T17:31:53.252Z,100297.06
2023-03-05T17:34:33.320Z,100296.50
2023-03-05T17:37:02.046Z,100290.97
2023-03-05T17:39:29.085Z,100300.53
2023-03-05T17:41:55.728Z,100292.78
2023-03-05T17:44:22.306Z,100296.66
2023-03-05T17:46:48.916Z,100290.19
2023-03-05T17:49:15.475Z,100291.06
2023-03-05T17:51:42.102Z,100287.97
2023-03-05T17:54:08.716Z,100285.34
2023-03-05T17:56:35.345Z,100272.13
2023-03-05T17:59:02.059Z,100269.19
2023-03-05T18:01:32.256Z,100274.97
2023-03-05T18:03:59.339Z,100279.69
2023-03-05T18:06:26.394Z,100262.81
2023-03-05T18:08:53.114Z,100277.66
2023-03-05T18:11:20.302Z,100276.47
2023-03-05T18:13:46.918Z,100283.25
2023-03-05T18:16:16.985Z,100276.91
2023-03-05T18:18:44.783Z,100272.66
2023-03-05T18:21:11.559Z,100272.59
2023-03-05T18:23:38.125Z,100263.44
2023-03-05T18:26:04.761Z,100267.66
2023-03-05T18:28:31.701Z,100267.78
2023-03-05T18:30:58.392Z,100265.47
2023-03-05T18:33:25.734Z,100270.31
2023-03-05T18:35:53.053Z,100261.84
2023-03-05T18:38:23.985Z,100261.66
2023-03-05T18:40:51.565Z,100254.44
2023-03-05T18:43:22.764Z,100258.47
2023-03-05T18:45:54.643Z,100253.38
2023-03-05T18:48:21.433Z,100253.63
2023-03-05T18:50:52.594Z,100253.31
2023-03-05T18:53:19.830Z,100249.31
2023-03-05T18:55:46.601Z,100254.44
2023-03-05T18:58:17.531Z,100245.16
2023-03-05T19:00:46.989Z,100244.03
2023-03-05T19:03:15.004Z,100243.44
2023-03-05T19:05:42.480Z,100237.53
2023-03-05T19:08:09.178Z,100234.28
2023-03-05T19:10:36.468Z,100240.84
2023-03-05T19:13:08.076Z,100236.56
2023-03-05T19:15:34.721Z,100230.78
2023-03-05T19:18:01.353Z,100241.28
2023-03-05T19:20:27.956Z,100236.06
2023-03-05T19:22:55.818Z,100235.84
2023-03-05T19:25:22.590Z,100226.22
2023-03-05T19:27:49.252Z,100224.66
2023-03-05T19:30:16.384Z,100227.19
2023-03-05T19:32:43.073Z,100228.53
2023-03-05T19:35:15.109Z,100232.53
2023-03-05T19:37:41.929Z,100233.13
2023-03-05T19:40:09.354Z,100225.47
2023-03-05T19:42:38.040Z,100227.28
2023-03-05T19:45:06.330Z,100221.22
2023-03-05T19:47:32.953Z,100221.16
2023-03-05T19:49:59.524Z,100224.50
2023-03-05T19:52:26.820Z,100217.78
2023-03-05T19:54:53.546Z,100218.53
2023-03-05T19:57:20.132Z,100218.97
2023-03-05T19:59:46.901Z,100212.78
2023-03-05T20:02:13.784Z,100210.13
2023-03-05T20:04:40.388Z,100211.63
2023-03-05T20:07:07.195Z,100207.31
2023-03-05T20:09:33.788Z,100211.38
2023-03-05T20:12:02.759Z,100203.06
2023-03-05T20:14:29.484Z,100205.47
2023-03-05T20:16:56.089Z,100207.16
2023-03-05T20:19:22.671Z,100199.41
2023-03-05T20:21:49.328Z,100200.38
2023-03-05T20:24:18.368Z,100196.16
2023-03-05T20:26:46.654Z,100202.28
2023-03-05T20:29:17.478Z,100193.91
2023-03-05T20:31:44.926Z,100188.56
2023-03-05T20:34:14.582Z,100194.09
2023-03-05T20:36:41.836Z,100190.41
2023-03-05T20:39:09.001Z,100190.44
2023-03-05T20:41:38.122Z,100192.28
2023-03-05T20:44:05.719Z,100186.28
2023-03-05T20:46:39.450Z,100183.78
2023-03-05T20:49:06.164Z,100184.31
2023-03-05T20:51:35.887Z,100184.56
2023-03-05T20:54:20.644Z,100171.50
2023-03-05T20:56:47.864Z,100167.44
2023-03-05T20:59:14.583Z,100170.16
2023-03-05T21:01:41.261Z,100173.47
2023-03-05T21:04:08.276Z,100162.28
2023-03-05T21:06:36.040Z,100158.25
2023-03-05T21:09:02.765Z,100161.84
2023-03-05T21:11:29.629Z,100157.31
2023-03-05T21:13:56.226Z,100145.75
2023-03-05T21:16:27.717Z,100154.13
2023-03-05T21:18:56.124Z,100150.56
2023-03-05T21:21:22.956Z,100151.31
2023-03-05T21:23:49.579Z,100148.19
2023-03-05T21:26:16.313Z,100139.72
2023-03-05T21:28:43.161Z,100140.94
2023-03-05T21:31:15.216Z,100142.91
2023-03-05T21:33:42.181Z,100137.19
2023-03-05T21:36:08.907Z,100132.66
2023-03-05T21:38:35.782Z,100130.19
2023-03-05T21:41:02.804Z,100120.94
2023-03-05T21:43:31.340Z,100126.41
2023-03-05T21:45:59.757Z,100121.06
2023-03-05T21:48:26.552Z,100118.41
2023-03-05T21:50:54.824Z,100115.16
2023-03-05T21:53:21.887Z,100104.63
2023-03-05T21:56:22.083Z,100099.72
2023-03-05T21:58:49.112Z,100100.09
2023-03-05T22:01:19.373Z,100094.56
2023-03-05T22:03:46.272Z,100096.97
2023-03-05T22:06:14.951Z,100095.44
2023-03-05T22:08:42.044Z,100096.78
2023-03-05T22:11:13.604Z,100089.06
2023-03-05T22:13:40.829Z,100086.81
2023-03-05T22:16:09.192Z,100081.28
2023-03-05T22:18:36.552Z,100076.22
2023-03-05T22:21:04.906Z,100075.41
2023-03-05T22:23:34.559Z,100073.81
2023-03-05T22:26:04.940Z,100077.06
2023-03-05T22:28:32.735Z,100063.91
2023-03-05T22:30:59.774Z,100065.28
2023-03-05T22:33:27.498Z,100062.00
2023-03-05T22:35:54.170Z,100046.41
2023-03-05T22:38:21.260Z,100050.66
2023-03-05T22:40:49.356Z,100045.69
2023-03-05T22:43:17.195Z,100042.34
2023-03-05T22:45:44.257Z,100039.00
2023-03-05T22:48:11.561Z,100035.44
2023-03-05T22:50:39.696Z,100032.88
2023-03-05T22:53:06.762Z,100030.28
2023-03-05T22:55:33.345Z,100024.34
2023-03-05T22:58:00.023Z,100022.47
2023-03-05T23:00:29.624Z,100015.84
2023-03-05T23:02:56.629Z,100020.16
2023-03-05T23:05:23.331Z,100011.47
2023-03-05T23:07:49.958Z,100015.50
2023-03-05T23:10:21.705Z,100009.47
2023-03-05T23:12:51.073Z,99996.59
2023-03-05T23:15:23.037Z,99989.84
2023-03-05T23:17:49.635Z,99994.94
2023-03-05T23:20:17.961Z,99990.50
2023-03-05T23:22:45.209Z,99981.22
2023-03-05T23:25:14.930Z,99987.94
2023-03-05T23:27:42.238Z,99989.84
2023-03-05T23:30:22.177Z,99989.19
2023-03-05T23:32:50.470Z,99984.38
2023-03-05T23:35:20.488Z,99979.13
2023-03-05T23:37:47.647Z,99982.56
2023-03-05T23:40:18.283Z,99982.03
2023-03-05T23:42:45.607Z,99983.59
2023-03-05T23:45:14.419Z,99981.88
2023-03-05T23:47:41.667Z,99975.94
2023-03-05T23:50:14.793Z,99976.31
2023-03-05T23:52:43.148Z,99968.88
2023-03-05T23:55:10.111Z,99953.63
2023-03-05T23:57:36.778Z,99956.59
